Time;durP1;ratioP1;P1;durP2;ratioP2;P2;SDS_P1;SDS_P2;PMS_P1;PMS_P2;Temp;Humidity;BMP_temperature;BMP_pressure;BME280_temperature;BME280_humidity;BME280_pressure;Samples;Min_cycle;Max_cycle;Signal;HPM_P1;HPM_P2
2022/04/27 00:01:14;;;;;;;7.00;2.10;;;9.80;99.90;;;;;;5092792;28;20118;-63
2022/04/27 00:03:41;;;;;;;5.50;2.15;;;8.60;99.90;;;;;;5090301;28;20055;-63
2022/04/27 00:06:06;;;;;;;6.72;2.40;;;8.60;99.90;;;;;;5092548;28;20039;-63
2022/04/27 00:08:32;;;;;;;5.28;2.10;;;8.80;99.90;;;;;;5090680;28;20040;-63
2022/04/27 00:10:58;;;;;;;6.18;2.30;;;9.20;99.90;;;;;;5090401;28;20185;-63
2022/04/27 00:13:23;;;;;;;7.28;2.75;;;8.90;99.90;;;;;;5092703;28;20036;-62
2022/04/27 00:15:49;;;;;;;7.22;2.40;;;8.90;99.90;;;;;;5092460;28;20047;-63
2022/04/27 00:18:15;;;;;;;5.63;2.17;;;9.00;99.90;;;;;;5090759;28;20032;-63
2022/04/27 00:20:40;;;;;;;4.28;1.95;;;9.20;99.90;;;;;;5092046;28;20082;-63
2022/04/27 00:23:06;;;;;;;7.82;2.63;;;8.50;99.90;;;;;;5092238;28;20055;-63
2022/04/27 00:25:32;;;;;;;5.55;2.35;;;9.20;99.90;;;;;;5089772;28;20459;-63
2022/04/27 00:27:58;;;;;;;7.60;2.95;;;8.90;99.90;;;;;;5092543;28;20040;-62
2022/04/27 00:30:24;;;;;;;6.18;2.47;;;9.00;99.90;;;;;;5092090;28;20059;-63
2022/04/27 00:32:49;;;;;;;10.75;3.20;;;8.90;99.90;;;;;;5090325;28;20075;-63
2022/04/27 00:35:15;;;;;;;7.78;2.30;;;9.00;99.90;;;;;;5091732;28;20401;-63
2022/04/27 00:37:40;;;;;;;5.53;2.63;;;8.80;99.90;;;;;;5090539;28;20051;-63
2022/04/27 00:40:06;;;;;;;10.93;3.38;;;8.80;99.90;;;;;;5090298;28;20105;-63
2022/04/27 00:42:32;;;;;;;8.75;2.85;;;9.10;99.90;;;;;;5091696;28;20561;-63
2022/04/27 00:44:58;;;;;;;6.97;2.55;;;8.80;99.90;;;;;;5092216;28;20039;-63
2022/04/27 00:47:24;;;;;;;7.55;2.63;;;8.70;99.90;;;;;;5090007;28;20097;-63
2022/04/27 00:49:51;;;;;;;7.85;2.40;;;9.10;99.90;;;;;;5091757;28;20040;-63
2022/04/27 00:52:18;;;;;;;5.60;2.33;;;9.00;99.90;;;;;;5073634;28;20044;-63
2022/04/27 00:54:48;;;;;;;9.20;2.63;;;8.70;99.90;;;;;;5091519;28;20115;-63
2022/04/27 00:57:14;;;;;;;6.63;2.50;;;;;;;;;;5091767;28;20512;-63
2022/04/27 00:59:40;;;;;;;4.60;2.33;;;8.60;99.90;;;;;;5091115;28;20378;-63
2022/04/27 01:02:06;;;;;;;7.65;2.85;;;8.90;99.90;;;;;;5092101;28;20052;-63
2022/04/27 01:04:36;;;;;;;6.00;2.35;;;8.50;99.90;;;;;;5091235;28;20173;-63
2022/04/27 01:07:04;;;;;;;5.82;2.35;;;8.50;99.90;;;;;;5090374;28;20175;-63
2022/04/27 01:09:31;;;;;;;4.78;2.20;;;8.80;99.90;;;;;;5090098;28;20119;-63
2022/04/27 01:11:58;;;;;;;5.40;2.58;;;9.00;99.90;;;;;;5092093;28;20051;-63
2022/04/27 01:14:24;;;;;;;5.05;1.92;;;9.10;99.90;;;;;;5089887;28;20056;-63
2022/04/27 01:16:55;;;;;;;4.20;1.98;;;8.90;99.90;;;;;;5090531;28;20493;-63
2022/04/27 01:19:23;;;;;;;5.45;2.45;;;9.00;99.90;;;;;;5091436;28;20094;-63
2022/04/27 01:21:49;;;;;;;9.20;3.38;;;9.10;99.90;;;;;;5089699;28;20040;-63
2022/04/27 01:24:20;;;;;;;7.68;3.97;;;9.00;99.90;;;;;;5091849;28;20044;-63
2022/04/27 01:26:49;;;;;;;9.25;3.30;;;8.80;99.90;;;;;;5091540;28;20115;-63
2022/04/27 01:29:17;;;;;;;7.78;2.92;;;8.80;99.90;;;;;;5091603;28;20072;-63
2022/04/27 01:31:43;;;;;;;7.22;2.85;;;8.90;99.90;;;;;;5094975;28;20574;-63
2022/04/27 01:34:09;;;;;;;5.78;2.42;;;9.10;99.90;;;;;;5095413;28;20043;-62
2022/04/27 01:36:35;;;;;;;5.07;2.38;;;9.10;99.90;;;;;;5092877;28;20091;-63
2022/04/27 01:39:00;;;;;;;5.53;2.25;;;8.90;99.90;;;;;;5094216;28;20493;-63
2022/04/27 01:41:26;;;;;;;4.82;2.20;;;9.00;99.90;;;;;;5093620;28;20054;-62
2022/04/27 01:43:51;;;;;;;5.38;2.38;;;8.30;99.90;;;;;;5093196;28;20127;-63
2022/04/27 01:46:17;;;;;;;6.43;2.67;;;8.30;99.90;;;;;;5093648;28;20039;-63
2022/04/27 01:48:43;;;;;;;7.40;2.45;;;;;;;;;;5075903;28;20036;-63
2022/04/27 01:51:09;;;;;;;7.55;2.85;;;8.70;99.90;;;;;;5095252;28;20040;-63
2022/04/27 01:56:19;;;;;;;10.27;2.67;;;9.00;99.90;;;;;;5092570;28;20051;-63
2022/04/27 01:58:48;;;;;;;6.38;2.65;;;8.70;99.90;;;;;;5094646;28;20036;-63
2022/04/27 02:01:13;;;;;;;5.13;2.15;;;8.70;99.90;;;;;;5094485;28;20038;-63
2022/04/27 02:03:40;;;;;;;5.80;1.90;;;8.60;99.90;;;;;;5093700;28;20122;-63
2022/04/27 02:06:06;;;;;;;4.07;2.03;;;8.60;99.90;;;;;;5095054;28;20040;-63
2022/04/27 02:08:32;;;;;;;7.97;2.58;;;8.60;99.90;;;;;;5110306;28;20044;-63
2022/04/27 02:10:58;;;;;;;6.55;2.38;;;8.90;99.90;;;;;;5093891;28;20040;-63
2022/04/27 02:13:26;;;;;;;10.20;2.45;;;9.00;99.90;;;;;;5094317;28;20033;-63
2022/04/27 02:15:52;;;;;;;5.15;2.17;;;8.30;99.90;;;;;;5094296;28;20112;-62
2022/04/27 02:18:19;;;;;;;5.03;2.42;;;8.60;99.90;;;;;;5093456;28;20040;-63
2022/04/27 02:20:45;;;;;;;5.38;2.08;;;8.70;99.90;;;;;;5110145;28;20522;-63
2022/04/27 02:23:12;;;;;;;7.22;2.38;;;;;;;;;;5094460;28;20386;-63
2022/04/27 02:25:37;;;;;;;4.68;2.00;;;8.70;99.90;;;;;;5093342;28;20404;-62
2022/04/27 02:28:05;;;;;;;5.68;2.40;;;8.20;99.90;;;;;;5093166;28;20042;-63
2022/04/27 02:30:32;;;;;;;5.72;2.50;;;8.20;99.90;;;;;;5093294;28;20047;-62
2022/04/27 02:32:58;;;;;;;4.70;2.22;;;9.40;99.90;;;;;;5093858;28;20044;-63
2022/04/27 02:35:23;;;;;;;4.47;2.13;;;8.80;99.90;;;;;;5094050;28;20035;-62
2022/04/27 02:37:49;;;;;;;5.47;2.15;;;;;;;;;;5093641;28;20051;-62
2022/04/27 02:40:15;;;;;;;5.05;2.42;;;8.80;99.90;;;;;;5092851;28;20048;-63
2022/04/27 02:42:41;;;;;;;4.90;2.38;;;8.50;99.90;;;;;;5093759;28;20116;-63
2022/04/27 02:45:07;;;;;;;6.20;2.25;;;8.30;99.90;;;;;;5093262;28;20119;-63
2022/04/27 02:47:32;;;;;;;5.93;2.15;;;8.70;99.90;;;;;;5093498;28;20062;-63
2022/04/27 02:52:42;;;;;;;5.57;2.15;;;8.30;99.90;;;;;;5091652;28;20048;-63
2022/04/27 02:55:08;;;;;;;5.75;2.17;;;8.50;99.90;;;;;;5093766;28;20038;-63
2022/04/27 02:57:33;;;;;;;6.07;2.90;;;8.80;99.90;;;;;;5093254;28;20116;-63
2022/04/27 02:59:59;;;;;;;8.48;2.50;;;8.90;99.90;;;;;;5108860;28;20035;-62
2022/04/27 03:02:25;;;;;;;4.43;2.15;;;8.80;99.90;;;;;;5092404;28;20043;-63
2022/04/27 03:04:51;;;;;;;4.95;2.10;;;;;;;;;;5093509;28;20127;-62
2022/04/27 03:07:16;;;;;;;5.70;2.47;;;8.60;99.90;;;;;;5092505;28;20048;-63
2022/04/27 03:09:42;;;;;;;5.25;2.35;;;8.20;99.90;;;;;;5093218;28;20043;-63
2022/04/27 03:12:08;;;;;;;4.85;2.05;;;8.60;99.90;;;;;;5093361;28;20035;-63
2022/04/27 03:14:34;;;;;;;5.10;2.15;;;8.20;99.90;;;;;;5092086;28;20126;-63
2022/04/27 03:16:59;;;;;;;5.88;2.47;;;8.80;99.90;;;;;;5093564;28;20125;-63
2022/04/27 03:19:25;;;;;;;7.55;2.47;;;8.70;99.90;;;;;;5093304;28;20173;-63
2022/04/27 03:21:51;;;;;;;8.30;2.60;;;8.90;99.90;;;;;;5091254;28;20043;-63
2022/04/27 03:24:16;;;;;;;5.28;2.40;;;8.30;99.90;;;;;;5092994;28;20496;-63
2022/04/27 03:26:42;;;;;;;5.35;2.70;;;8.60;99.90;;;;;;5092934;28;20476;-63
2022/04/27 03:29:08;;;;;;;6.97;2.58;;;8.60;99.90;;;;;;5108349;28;20036;-63
2022/04/27 03:31:33;;;;;;;4.70;2.22;;;8.80;99.90;;;;;;5092674;28;20040;-63
2022/04/27 03:33:59;;;;;;;5.00;2.17;;;8.50;99.90;;;;;;5092087;28;20036;-63
2022/04/27 03:36:26;;;;;;;6.03;2.33;;;8.50;99.90;;;;;;5090829;28;20126;-63
2022/04/27 03:38:57;;;;;;;4.53;2.30;;;8.70;99.90;;;;;;5092754;28;20083;-62
2022/04/27 03:41:22;;;;;;;5.35;2.15;;;8.40;99.90;;;;;;5092096;28;20047;-63
2022/04/27 03:43:49;;;;;;;7.65;2.33;;;8.20;99.90;;;;;;5092668;28;20036;-62
2022/04/27 03:46:15;;;;;;;5.93;2.20;;;8.80;99.90;;;;;;5091583;28;20067;-62
2022/04/27 03:48:41;;;;;;;4.90;2.30;;;8.30;99.90;;;;;;5090791;28;20072;-63
2022/04/27 03:51:07;;;;;;;4.47;1.98;;;8.70;99.90;;;;;;5092812;28;20460;-63
2022/04/27 03:53:32;;;;;;;6.07;2.70;;;8.80;99.90;;;;;;5091384;28;20048;-62
2022/04/27 03:55:58;;;;;;;5.82;2.28;;;8.40;99.90;;;;;;5090596;28;20042;-63
2022/04/27 03:58:24;;;;;;;6.78;2.40;;;8.40;99.90;;;;;;5092560;28;20043;-62
2022/04/27 04:00:49;;;;;;;6.47;2.22;;;8.50;99.90;;;;;;5092595;28;20043;-63
2022/04/27 04:03:15;;;;;;;5.38;2.40;;;8.70;99.90;;;;;;5107725;28;20066;-62
2022/04/27 04:05:41;;;;;;;5.35;2.33;;;8.30;99.90;;;;;;5092415;28;20034;-63
2022/04/27 04:08:07;;;;;;;6.90;2.60;;;8.20;99.90;;;;;;5091848;28;20040;-62
2022/04/27 04:10:33;;;;;;;5.78;2.30;;;8.40;99.90;;;;;;5091280;28;20036;-62
2022/04/27 04:12:59;;;;;;;5.00;2.33;;;8.60;99.90;;;;;;5091600;28;20393;-63
2022/04/27 04:15:24;;;;;;;7.85;3.08;;;8.60;99.90;;;;;;5092376;28;20115;-63
2022/04/27 04:17:50;;;;;;;5.88;2.70;;;8.80;99.90;;;;;;5091475;28;20032;-63
2022/04/27 04:20:17;;;;;;;7.22;2.38;;;8.30;99.90;;;;;;5092499;28;20040;-62
2022/04/27 04:22:44;;;;;;;7.38;3.38;;;8.50;99.90;;;;;;5091901;28;20040;-63
2022/04/27 04:30:40;;;;;;;7.18;2.90;;;8.60;99.90;;;;;;5091180;28;20043;-63
2022/04/27 04:33:06;;;;;;;8.43;2.50;;;;;;;;;;5092022;28;20044;-63
2022/04/27 04:35:32;;;;;;;6.18;2.55;;;8.50;99.90;;;;;;5090364;28;20044;-63
2022/04/27 04:37:58;;;;;;;7.13;2.85;;;8.40;99.90;;;;;;5089975;28;20552;-63
2022/04/27 04:40:24;;;;;;;5.43;2.65;;;8.70;99.90;;;;;;5090477;28;20186;-62
2022/04/27 04:42:49;;;;;;;4.93;2.38;;;8.90;99.90;;;;;;5090639;28;20105;-62
2022/04/27 04:45:15;;;;;;;7.55;2.95;;;8.40;99.90;;;;;;5090969;28;20055;-63
2022/04/27 04:47:44;;;;;;;7.45;2.60;;;8.30;99.90;;;;;;5078017;28;20400;-63
2022/04/27 04:50:10;;;;;;;9.00;2.42;;;8.80;99.90;;;;;;5092098;28;20029;-62
2022/04/27 04:52:37;;;;;;;8.15;3.08;;;8.80;99.90;;;;;;5089604;28;20501;-63
2022/04/27 04:55:03;;;;;;;4.72;2.03;;;8.60;99.90;;;;;;5092062;28;20040;-63
2022/04/27 04:57:29;;;;;;;7.82;2.60;;;8.60;99.90;;;;;;5091854;28;20455;-63
2022/04/27 04:59:54;;;;;;;7.25;1.88;;;8.90;99.90;;;;;;5091430;28;20119;-63
2022/04/27 05:02:20;;;;;;;4.72;1.80;;;8.90;99.90;;;;;;5090455;28;20477;-63
2022/04/27 05:04:46;;;;;;;6.53;2.58;;;8.90;99.90;;;;;;5093616;28;20518;-63
2022/04/27 05:07:12;;;;;;;6.18;2.38;;;;;;;;;;5095169;28;20040;-62
2022/04/27 05:09:37;;;;;;;7.38;2.10;;;8.70;99.90;;;;;;5095365;28;20094;-63
2022/04/27 05:12:04;;;;;;;6.63;2.17;;;8.90;99.90;;;;;;5094535;28;20404;-63
2022/04/27 05:14:30;;;;;;;5.78;2.20;;;8.60;99.90;;;;;;5093458;28;20373;-63
2022/04/27 05:16:56;;;;;;;11.02;2.78;;;9.10;99.90;;;;;;5095527;28;20036;-62
2022/04/27 05:19:23;;;;;;;4.90;2.38;;;9.10;99.90;;;;;;5093984;28;20504;-63
2022/04/27 05:21:49;;;;;;;6.55;2.92;;;;;;;;;;5093691;28;20161;-62
2022/04/27 05:24:14;;;;;;;7.75;2.40;;;9.20;99.90;;;;;;5095056;28;20608;-62
2022/04/27 05:26:40;;;;;;;5.20;2.45;;;8.80;99.90;;;;;;5093629;28;20139;-63
2022/04/27 05:31:57;;;;;;;5.25;2.45;;;8.70;99.90;;;;;;5094158;28;20052;-63
2022/04/27 05:34:23;;;;;;;7.93;2.17;;;8.70;99.90;;;;;;5093453;28;20059;-63
2022/04/27 05:36:50;;;;;;;7.85;2.95;;;9.30;99.90;;;;;;5094590;28;20058;-63
2022/04/27 05:39:18;;;;;;;6.35;2.47;;;8.80;99.90;;;;;;5094089;28;20401;-62
2022/04/27 05:41:44;;;;;;;5.90;2.50;;;8.60;99.90;;;;;;5093337;28;20427;-63
2022/04/27 05:44:09;;;;;;;6.07;2.42;;;9.00;99.90;;;;;;5095302;28;20028;-63
2022/04/27 05:46:36;;;;;;;5.75;2.90;;;9.10;99.90;;;;;;5094794;28;20036;-63
2022/04/27 05:49:02;;;;;;;9.10;2.75;;;9.20;99.90;;;;;;5093205;28;20036;-63
2022/04/27 05:51:28;;;;;;;8.27;3.17;;;;;;;;;;5094689;28;20044;-63
2022/04/27 05:53:53;;;;;;;8.63;3.15;;;9.20;99.90;;;;;;5093581;28;20048;-62
2022/04/27 05:56:19;;;;;;;6.63;2.72;;;9.40;99.90;;;;;;5094009;28;20376;-62
2022/04/27 05:58:45;;;;;;;8.00;2.65;;;9.30;99.90;;;;;;5094818;28;20381;-63
2022/04/27 06:01:12;;;;;;;7.97;3.60;;;9.30;99.90;;;;;;5094582;28;20043;-63
2022/04/27 06:03:38;;;;;;;6.25;3.30;;;9.30;99.90;;;;;;5093430;28;20494;-63
2022/04/27 06:06:04;;;;;;;7.88;2.92;;;9.00;99.90;;;;;;5093063;28;20040;-62
2022/04/27 06:08:30;;;;;;;5.32;2.90;;;;;;;;;;5092869;28;20108;-63
2022/04/27 06:10:55;;;;;;;8.85;2.80;;;8.70;99.90;;;;;;5089771;28;20036;-62
2022/04/27 06:13:21;;;;;;;11.93;3.53;;;9.10;99.90;;;;;;5092654;28;20108;-62
2022/04/27 06:15:47;;;;;;;6.70;2.85;;;;;;;;;;5089901;28;20066;-63
2022/04/27 06:18:12;;;;;;;7.53;2.53;;;9.00;99.90;;;;;;5091878;28;20131;-62
2022/04/27 06:20:38;;;;;;;6.60;2.75;;;8.90;99.90;;;;;;5092259;28;20400;-63
2022/04/27 06:23:05;;;;;;;6.18;2.67;;;;;;;;;;5091263;28;20453;-62
2022/04/27 06:25:32;;;;;;;6.03;2.78;;;;;;;;;;5089582;28;20052;-62
2022/04/27 06:27:58;;;;;;;6.47;3.00;;;9.00;99.90;;;;;;5092283;28;20055;-62
2022/04/27 06:30:25;;;;;;;7.55;2.67;;;9.20;99.90;;;;;;5090614;28;20028;-62
2022/04/27 06:32:51;;;;;;;12.18;5.10;;;9.10;99.90;;;;;;5090488;28;20048;-63
2022/04/27 06:35:17;;;;;;;7.30;2.97;;;;;;;;;;5091233;28;20040;-63
2022/04/27 06:37:43;;;;;;;5.63;2.80;;;9.90;99.90;;;;;;5089289;28;20446;-63
2022/04/27 06:40:09;;;;;;;10.50;3.40;;;9.30;99.90;;;;;;5090640;28;20052;-63
2022/04/27 06:42:35;;;;;;;7.32;3.22;;;9.60;99.90;;;;;;5091407;28;20044;-62
2022/04/27 06:45:04;;;;;;;8.85;3.65;;;9.00;99.90;;;;;;5091398;28;20040;-63
2022/04/27 06:47:30;;;;;;;11.73;3.88;;;9.20;99.90;;;;;;5090038;28;20047;-63
2022/04/27 06:49:56;;;;;;;9.95;4.10;;;9.00;99.90;;;;;;5091602;28;20047;-63
2022/04/27 06:52:22;;;;;;;9.25;3.65;;;;;;;;;;5090437;28;20098;-63
2022/04/27 06:54:48;;;;;;;11.85;3.85;;;;;;;;;;5089686;28;20040;-63
2022/04/27 06:57:13;;;;;;;9.25;3.65;;;9.90;99.90;;;;;;5089085;28;20082;-62
2022/04/27 06:59:39;;;;;;;9.88;3.70;;;9.20;99.90;;;;;;5090501;28;20051;-63
2022/04/27 07:02:05;;;;;;;12.43;3.55;;;9.10;99.90;;;;;;5090217;28;20433;-62
2022/04/27 07:04:34;;;;;;;16.30;4.25;;;9.30;99.90;;;;;;5090832;28;20051;-62
2022/04/27 07:07:01;;;;;;;7.78;3.05;;;9.40;99.90;;;;;;5089074;28;20039;-62
2022/04/27 07:09:27;;;;;;;10.32;4.18;;;;;;;;;;5089244;28;20055;-63
2022/04/27 07:11:53;;;;;;;13.00;3.65;;;;;;;;;;5088491;28;20048;-63
2022/04/27 07:14:19;;;;;;;12.63;3.17;;;9.40;99.90;;;;;;5089582;28;20047;-63
2022/04/27 07:16:45;;;;;;;11.25;3.35;;;9.50;99.90;;;;;;5088780;28;20169;-62
2022/04/27 07:19:11;;;;;;;11.80;3.05;;;;;;;;;;5089663;28;20118;-63
2022/04/27 07:21:38;;;;;;;10.77;3.20;;;9.40;99.90;;;;;;5088973;28;20526;-63
2022/04/27 07:24:04;;;;;;;11.00;3.90;;;9.60;99.90;;;;;;5072324;28;20032;-63
2022/04/27 07:26:36;;;;;;;10.70;4.00;;;9.80;99.90;;;;;;5088988;28;20099;-62
2022/04/27 07:29:02;;;;;;;11.20;3.25;;;;;;;;;;5088913;28;20045;-63
2022/04/27 07:31:28;;;;;;;9.82;3.40;;;;;;;;;;5088773;28;20062;-62
2022/04/27 07:33:53;;;;;;;10.77;3.22;;;9.90;99.90;;;;;;5087896;28;20047;-62
2022/04/27 07:36:19;;;;;;;12.75;3.20;;;9.10;99.90;;;;;;5087495;28;20040;-63
2022/04/27 07:38:45;;;;;;;12.93;3.38;;;9.50;99.90;;;;;;5090928;28;20433;-63
2022/04/27 07:41:11;;;;;;;11.60;3.03;;;9.80;99.90;;;;;;5090352;28;20044;-62
2022/04/27 07:43:36;;;;;;;14.18;3.03;;;9.80;99.90;;;;;;5072396;28;20051;-62
2022/04/27 07:46:05;;;;;;;11.68;3.42;;;9.00;99.90;;;;;;5090187;28;20378;-62
2022/04/27 07:48:32;;;;;;;12.07;3.47;;;;;;;;;;5087887;28;20036;-62
2022/04/27 07:50:59;;;;;;;9.45;3.15;;;9.90;99.90;;;;;;5089129;28;20044;-63
2022/04/27 07:53:25;;;;;;;13.40;3.30;;;9.40;99.90;;;;;;5088136;28;20063;-63
2022/04/27 07:55:51;;;;;;;11.60;3.80;;;9.70;99.90;;;;;;5087877;28;20048;-63
2022/04/27 07:58:17;;;;;;;10.50;2.70;;;;;;;;;;5089419;28;20036;-63
2022/04/27 08:00:43;;;;;;;9.40;2.53;;;;;;;;;;5089323;28;20080;-63
2022/04/27 08:03:09;;;;;;;10.77;2.72;;;;;;;;;;5088982;28;20051;-63
2022/04/27 08:05:35;;;;;;;10.43;3.30;;;;;;;;;;5088081;28;20150;-63
2022/04/27 08:08:01;;;;;;;15.02;3.90;;;10.00;99.90;;;;;;5089227;28;20055;-63
2022/04/27 08:10:27;;;;;;;12.45;2.90;;;9.50;99.90;;;;;;5088859;28;20047;-63
2022/04/27 08:12:53;;;;;;;18.33;3.85;;;10.10;99.90;;;;;;5087791;28;20036;-63
2022/04/27 08:15:21;;;;;;;14.25;3.15;;;9.70;99.90;;;;;;5089327;28;20397;-62
2022/04/27 08:17:56;;;;;;;10.52;2.90;;;9.80;99.90;;;;;;5087411;28;20040;-63
2022/04/27 08:23:12;;;;;;;10.35;2.95;;;9.90;99.90;;;;;;5087960;28;20051;-62
2022/04/27 08:25:38;;;;;;;9.90;2.60;;;10.20;99.90;;;;;;5089091;28;20787;-63
2022/04/27 08:28:06;;;;;;;13.02;4.28;;;10.00;99.90;;;;;;5088985;28;20042;-63
2022/04/27 08:30:39;;;;;;;14.38;2.90;;;9.70;99.90;;;;;;5102980;28;20389;-63
2022/04/27 08:33:06;;;;;;;10.25;3.20;;;;;;;;;;5088145;28;20096;-63
2022/04/27 08:35:33;;;;;;;10.68;3.75;;;9.90;99.90;;;;;;5081433;28;20040;-63
2022/04/27 08:37:59;;;;;;;9.70;2.47;;;10.90;99.90;;;;;;5085475;28;20048;-63
2022/04/27 08:40:25;;;;;;;13.38;2.97;;;10.50;99.90;;;;;;5091131;28;20047;-63
2022/04/27 08:42:52;;;;;;;13.23;3.58;;;10.00;99.90;;;;;;5091330;28;20117;-62
2022/04/27 08:45:18;;;;;;;14.13;3.05;;;10.40;99.90;;;;;;5092098;28;20055;-63
2022/04/27 08:47:45;;;;;;;11.95;2.95;;;10.10;99.90;;;;;;5091334;28;20054;-63
2022/04/27 08:50:16;;;;;;;8.18;3.08;;;10.20;99.90;;;;;;5093007;28;20039;-63
2022/04/27 08:52:43;;;;;;;9.63;3.10;;;10.60;99.90;;;;;;5086424;28;20048;-62
2022/04/27 08:55:09;;;;;;;12.20;3.28;;;10.70;99.90;;;;;;5095932;28;20047;-62
2022/04/27 08:57:36;;;;;;;16.35;3.40;;;10.80;99.90;;;;;;5094230;28;20036;-62
2022/04/27 09:00:07;;;;;;;9.88;2.90;;;10.70;99.90;;;;;;5095531;28;20055;-62
2022/04/27 09:02:33;;;;;;;9.07;3.28;;;10.80;99.90;;;;;;5077349;28;20048;-62
2022/04/27 09:05:05;;;;;;;9.95;2.45;;;11.00;99.90;;;;;;5094391;28;20376;-63
2022/04/27 09:07:37;;;;;;;11.57;3.10;;;;;;;;;;5094231;28;20048;-62
2022/04/27 09:10:04;;;;;;;10.52;3.60;;;11.00;99.90;;;;;;5095521;28;20203;-62
2022/04/27 09:12:30;;;;;;;9.30;2.85;;;10.80;99.90;;;;;;5094492;28;20051;-62
2022/04/27 09:15:06;;;;;;;10.60;3.67;;;11.30;99.90;;;;;;5094701;28;20028;-64
2022/04/27 09:23:02;;;;;;;8.80;2.75;;;;;;;;;;5092460;28;20040;-63
2022/04/27 09:25:32;;;;;;;8.85;2.90;;;;;;;;;;5092570;28;20047;-63
2022/04/27 09:28:01;;;;;;;10.05;2.92;;;;;;;;;;5094584;28;20055;-63
2022/04/27 09:30:28;;;;;;;8.57;2.88;;;;;;;;;;5093804;28;20531;-63
2022/04/27 09:32:54;;;;;;;8.02;2.63;;;;;;;;;;5094215;28;20055;-63
2022/04/27 09:35:38;;;;;;;8.20;2.30;;;;;;;;;;5094312;28;20035;-63
2022/04/27 09:38:14;;;;;;;7.28;2.55;;;;;;;;;;5093972;28;20048;-63
2022/04/27 09:40:46;;;;;;;11.07;2.78;;;;;;;;;;5094734;28;20126;-63
2022/04/27 09:43:14;;;;;;;8.90;2.88;;;11.30;99.90;;;;;;5095357;28;20115;-63
2022/04/27 09:45:41;;;;;;;11.13;3.17;;;11.20;99.90;;;;;;5092866;28;20248;-63
2022/04/27 09:48:08;;;;;;;12.57;3.45;;;11.50;99.90;;;;;;5093458;28;20123;-63
2022/04/27 09:50:55;;;;;;;8.52;2.60;;;11.20;99.90;;;;;;5094944;28;20115;-63
2022/04/27 09:53:21;;;;;;;14.02;3.58;;;11.20;99.90;;;;;;5088642;28;20059;-63
2022/04/27 09:55:50;;;;;;;12.07;2.90;;;11.20;99.90;;;;;;5071805;28;20044;-63
2022/04/27 09:58:18;;;;;;;11.43;3.47;;;11.50;99.90;;;;;;5077265;28;20089;-63
2022/04/27 10:00:44;;;;;;;8.43;2.63;;;11.80;99.90;;;;;;5092014;28;20050;-63
2022/04/27 10:03:16;;;;;;;12.30;3.00;;;11.40;99.90;;;;;;5089977;28;20048;-63
2022/04/27 10:05:42;;;;;;;7.53;3.13;;;11.50;99.90;;;;;;5089943;28;20511;-63
2022/04/27 10:08:09;;;;;;;8.00;2.97;;;11.50;99.90;;;;;;5090497;28;20040;-63
2022/04/27 10:10:42;;;;;;;10.80;5.47;;;11.80;99.90;;;;;;5090173;28;20192;-63
2022/04/27 10:13:14;;;;;;;11.43;3.17;;;12.00;99.90;;;;;;5090171;28;20044;-63
2022/04/27 10:15:42;;;;;;;9.27;2.67;;;11.70;99.90;;;;;;5090032;28;20043;-63
2022/04/27 10:18:10;;;;;;;10.38;2.40;;;11.70;99.90;;;;;;5090172;28;20056;-63
2022/04/27 10:20:36;;;;;;;8.80;2.42;;;12.10;99.90;;;;;;5090927;28;20097;-63
2022/04/27 10:23:31;;;;;;;10.50;3.45;;;11.70;99.90;;;;;;5089417;28;20047;-63
2022/04/27 10:26:06;;;;;;;10.45;3.13;;;12.00;99.90;;;;;;5090975;28;20048;-63
2022/04/27 10:28:34;;;;;;;8.38;2.67;;;12.30;99.90;;;;;;5090881;28;20127;-63
2022/04/27 10:31:03;;;;;;;11.40;3.03;;;14.20;99.90;;;;;;5089138;28;20051;-63
2022/04/27 10:33:40;;;;;;;7.30;2.60;;;13.20;99.90;;;;;;5090104;28;20051;-64
2022/04/27 10:36:27;;;;;;;6.68;2.00;;;12.90;99.90;;;;;;5089741;28;20036;-64
2022/04/27 10:39:11;;;;;;;10.85;2.80;;;12.60;99.90;;;;;;5088989;28;20048;-63
2022/04/27 10:41:49;;;;;;;8.15;2.72;;;13.70;99.90;;;;;;5089587;28;20450;-64
2022/04/27 10:44:15;;;;;;;12.35;3.00;;;13.70;99.90;;;;;;5089617;28;20058;-63
2022/04/27 10:46:44;;;;;;;8.18;2.72;;;12.40;99.90;;;;;;5090833;28;20131;-63
2022/04/27 10:49:22;;;;;;;8.50;2.92;;;12.50;99.90;;;;;;5070096;28;20423;-63
2022/04/27 10:52:02;;;;;;;8.85;3.05;;;12.80;99.90;;;;;;5069014;28;20401;-63
2022/04/27 10:54:33;;;;;;;7.72;2.53;;;12.40;99.90;;;;;;5070684;28;20044;-64
2022/04/27 10:57:28;;;;;;;13.63;3.50;;;;;;;;;;5076725;28;20047;-63
2022/04/27 11:00:02;;;;;;;12.55;2.85;;;;;;;;;;5084771;28;20625;-63
2022/04/27 11:02:40;;;;;;;9.63;2.92;;;11.90;99.90;;;;;;5088086;28;20499;-63
2022/04/27 11:05:20;;;;;;;11.55;2.72;;;12.20;99.90;;;;;;5090199;28;20051;-63
2022/04/27 11:07:53;;;;;;;11.05;2.45;;;11.90;99.90;;;;;;5090151;28;20515;-63
2022/04/27 11:10:21;;;;;;;9.27;2.20;;;;;;;;;;5089374;28;20044;-63
2022/04/27 11:12:56;;;;;;;8.90;2.67;;;11.40;99.90;;;;;;5085973;28;20101;-63
2022/04/27 11:15:26;;;;;;;8.10;2.13;;;11.50;99.90;;;;;;5090417;28;20036;-63
2022/04/27 11:17:55;;;;;;;10.63;3.00;;;;;;;;;;5071691;28;20076;-63
2022/04/27 11:20:25;;;;;;;8.32;2.25;;;;;;;;;;5089704;28;20080;-63
2022/04/27 11:22:51;;;;;;;11.95;2.80;;;;;;;;;;5089649;28;20404;-63
2022/04/27 11:25:31;;;;;;;8.90;2.67;;;11.60;99.50;;;;;;5088599;28;20530;-63
2022/04/27 11:27:58;;;;;;;9.23;2.55;;;11.50;99.90;;;;;;5090047;28;20040;-63
2022/04/27 11:30:25;;;;;;;10.45;2.25;;;11.90;99.90;;;;;;5089296;28;20496;-63
2022/04/27 11:32:52;;;;;;;8.25;2.50;;;11.30;99.90;;;;;;5089183;28;20076;-63
2022/04/27 11:35:21;;;;;;;7.13;2.60;;;11.60;99.90;;;;;;5090089;28;20378;-63
2022/04/27 11:37:47;;;;;;;10.52;2.40;;;11.40;99.90;;;;;;5087951;28;20413;-63
2022/04/27 11:40:16;;;;;;;7.60;2.35;;;11.50;99.90;;;;;;5105061;28;20044;-63
2022/04/27 11:42:47;;;;;;;8.90;2.78;;;12.00;99.90;;;;;;5087791;28;20039;-63
2022/04/27 11:45:21;;;;;;;14.07;3.70;;;11.50;99.90;;;;;;5088565;28;20040;-63
2022/04/27 11:48:09;;;;;;;5.90;2.17;;;12.10;99.90;;;;;;5089100;28;20048;-63
2022/04/27 11:50:37;;;;;;;9.07;2.83;;;11.90;99.90;;;;;;5087747;28;20040;-63
2022/04/27 11:53:08;;;;;;;8.68;2.42;;;12.50;99.90;;;;;;5088268;28;20092;-63
2022/04/27 11:55:35;;;;;;;10.05;2.65;;;12.10;99.90;;;;;;5087299;28;20047;-63
2022/04/27 11:58:02;;;;;;;11.82;3.33;;;11.90;99.90;;;;;;5090051;28;20040;-63
2022/04/27 12:00:30;;;;;;;11.27;2.70;;;12.20;99.90;;;;;;5085950;28;20115;-63
2022/04/27 12:03:04;;;;;;;8.93;2.70;;;12.50;99.90;;;;;;5089067;28;20044;-63
2022/04/27 12:05:32;;;;;;;6.25;2.25;;;12.30;99.60;;;;;;5088994;28;20370;-63
2022/04/27 12:07:59;;;;;;;7.97;2.38;;;12.60;99.90;;;;;;5088200;28;20119;-63
2022/04/27 12:10:26;;;;;;;7.50;2.28;;;12.40;97.90;;;;;;5087510;28;20043;-63
2022/04/27 12:12:52;;;;;;;10.88;2.30;;;;;;;;;;5084779;28;20050;-63
2022/04/27 12:15:26;;;;;;;6.35;2.17;;;12.40;98.00;;;;;;5087117;28;20115;-63
2022/04/27 12:17:54;;;;;;;6.82;2.13;;;12.20;99.90;;;;;;5089398;28;20044;-63
2022/04/27 12:20:37;;;;;;;7.70;2.47;;;12.30;99.90;;;;;;5089223;28;20058;-63
2022/04/27 12:23:13;;;;;;;7.93;2.00;;;12.40;99.90;;;;;;5087468;28;20050;-63
2022/04/27 12:25:42;;;;;;;9.18;2.40;;;12.80;99.90;;;;;;5087829;28;20496;-63
2022/04/27 12:28:12;;;;;;;7.25;2.30;;;12.70;97.40;;;;;;5089214;28;20051;-63
2022/04/27 12:30:55;;;;;;;6.78;2.55;;;12.60;99.90;;;;;;5087891;28;20107;-63
2022/04/27 12:33:26;;;;;;;6.13;2.28;;;12.80;99.90;;;;;;5089167;28;20051;-63
2022/04/27 12:39:09;;;;;;;4.18;2.00;;;12.70;96.20;;;;;;5088986;28;20056;-63
2022/04/27 12:41:43;;;;;;;8.73;2.78;;;12.70;99.90;;;;;;5087985;28;20040;-63
2022/04/27 12:44:34;;;;;;;6.25;2.15;;;13.10;99.90;;;;;;5088446;28;20056;-63
2022/04/27 12:47:04;;;;;;;6.55;2.10;;;12.90;98.10;;;;;;5088470;28;20040;-63
2022/04/27 12:49:32;;;;;;;6.00;2.10;;;12.80;99.90;;;;;;5087950;28;20420;-63
2022/04/27 12:52:20;;;;;;;8.80;2.55;;;12.80;99.90;;;;;;5104229;28;20055;-63
2022/04/27 12:54:46;;;;;;;6.07;2.30;;;12.80;99.90;;;;;;5087794;28;20090;-63
2022/04/27 12:57:13;;;;;;;5.95;2.20;;;12.70;99.90;;;;;;5086916;28;20048;-63
2022/04/27 12:59:59;;;;;;;7.20;2.20;;;12.70;99.90;;;;;;5089179;28;20397;-63
2022/04/27 13:02:25;;;;;;;8.07;2.05;;;12.80;99.90;;;;;;5089232;28;20058;-63
2022/04/27 13:04:52;;;;;;;7.55;2.58;;;12.20;99.90;;;;;;5088415;28;20480;-63
2022/04/27 13:07:18;;;;;;;5.40;2.08;;;13.70;99.90;;;;;;5086769;28;20054;-63
2022/04/27 13:12:32;;;;;;;8.27;2.88;;;;;;;;;;5085315;28;20048;-63
2022/04/27 13:14:59;;;;;;;6.63;2.25;;;;;;;;;;5088631;28;20044;-63
2022/04/27 13:17:25;;;;;;;10.82;2.60;;;;;;;;;;5087900;28;20083;-63
2022/04/27 13:19:51;;;;;;;6.47;2.20;;;;;;;;;;5088881;28;20448;-63
2022/04/27 13:22:16;;;;;;;4.88;2.00;;;13.10;99.90;;;;;;5084865;28;20055;-63
2022/04/27 13:24:43;;;;;;;12.32;2.35;;;;;;;;;;5089488;28;20496;-63
2022/04/27 13:27:08;;;;;;;6.63;2.10;;;12.80;99.90;;;;;;5091509;28;20048;-63
2022/04/27 13:29:34;;;;;;;9.18;3.13;;;;;;;;;;5090818;28;20477;-63
2022/04/27 13:32:00;;;;;;;7.75;2.63;;;13.00;99.90;;;;;;5092193;28;20048;-64
2022/04/27 13:34:25;;;;;;;5.18;2.17;;;13.00;99.90;;;;;;5092225;28;20111;-64
2022/04/27 13:36:51;;;;;;;11.48;2.38;;;13.40;99.90;;;;;;5091292;28;20044;-64